createdAt,value
2022-11-28T00:01:28.887Z,11.02
2022-11-28T00:03:55.762Z,11.43
2022-11-28T00:06:22.429Z,10.68
2022-11-28T00:08:49.078Z,11.35
2022-11-28T00:11:16.430Z,11.82
2022-11-28T00:13:43.628Z,11.75
2022-11-28T00:16:14.999Z,11.88
2022-11-28T00:18:41.487Z,10.68
2022-11-28T00:21:10.124Z,12.02
2022-11-28T00:23:36.606Z,10.70
2022-11-28T00:26:09.035Z,10.00
2022-11-28T00:28:35.703Z,10.35
2022-11-28T00:31:02.222Z,10.68
2022-11-28T00:33:28.811Z,11.52
2022-11-28T00:36:01.098Z,11.07
2022-11-28T00:38:27.893Z,9.68
2022-11-28T00:41:09.756Z,9.55
2022-11-28T00:43:36.564Z,9.48
2022-11-28T00:46:03.890Z,10.50
2022-11-28T00:48:30.529Z,10.23
2022-11-28T00:51:09.188Z,9.75
2022-11-28T00:53:36.663Z,9.63
2022-11-28T00:56:07.101Z,9.30
2022-11-28T00:58:34.658Z,8.82
2022-11-28T01:01:07.794Z,9.00
2022-11-28T01:03:34.362Z,8.15
2022-11-28T01:06:00.838Z,9.05
2022-11-28T01:08:27.874Z,9.27
2022-11-28T01:10:54.354Z,9.43
2022-11-28T01:13:20.767Z,10.23
2022-11-28T01:15:47.310Z,10.13
2022-11-28T01:18:13.884Z,10.73
2022-11-28T01:20:40.327Z,9.10
2022-11-28T01:23:06.771Z,10.18
2022-11-28T01:25:33.470Z,10.48
2022-11-28T01:28:00.001Z,10.55
2022-11-28T01:30:26.705Z,10.95
2022-11-28T01:32:53.087Z,10.43
2022-11-28T01:35:19.706Z,10.70
2022-11-28T01:37:46.153Z,10.52
2022-11-28T01:40:13.219Z,10.10
2022-11-28T01:42:39.731Z,10.80
2022-11-28T01:45:16.612Z,10.90
2022-11-28T01:47:43.992Z,11.93
2022-11-28T01:50:10.748Z,10.52
2022-11-28T01:52:38.941Z,10.98
2022-11-28T01:55:06.221Z,11.90
2022-11-28T01:57:32.813Z,11.50
2022-11-28T02:00:11.667Z,10.95
2022-11-28T02:02:47.033Z,11.02
2022-11-28T02:05:15.528Z,10.20
2022-11-28T02:07:43.155Z,12.23
2022-11-28T02:10:12.488Z,11.52
2022-11-28T02:12:44.746Z,10.77
2022-11-28T02:15:20.294Z,11.88
2022-11-28T02:18:08.101Z,12.40
2022-11-28T02:21:11.269Z,12.35
2022-11-28T02:23:48.621Z,11.20
2022-11-28T02:26:45.323Z,11.07
2022-11-28T02:29:14.678Z,13.25
2022-11-28T02:34:35.259Z,11.80
2022-11-28T02:37:07.486Z,11.20
2022-11-28T02:39:45.541Z,11.30
2022-11-28T02:42:18.858Z,11.50
2022-11-28T02:44:55.811Z,11.15
2022-11-28T02:47:32.366Z,11.50
2022-11-28T02:49:58.740Z,10.90
2022-11-28T02:52:29.708Z,10.20
2022-11-28T02:54:57.034Z,10.90
2022-11-28T02:57:23.552Z,11.27
2022-11-28T02:59:50.622Z,11.82
2022-11-28T03:02:18.989Z,9.93
2022-11-28T03:05:21.502Z,10.00
2022-11-28T03:08:27.581Z,10.30
2022-11-28T03:11:08.125Z,10.60
2022-11-28T03:14:00.686Z,10.52
2022-11-28T03:16:29.456Z,9.55
2022-11-28T03:19:02.104Z,9.85
2022-11-28T03:21:46.832Z,9.15
2022-11-28T03:24:22.012Z,8.88
2022-11-28T03:26:58.655Z,10.05
2022-11-28T03:29:34.690Z,9.73
2022-11-28T03:32:04.067Z,10.57
2022-11-28T03:37:08.921Z,10.25
2022-11-28T03:39:38.692Z,10.45
2022-11-28T03:42:10.645Z,11.00
2022-11-28T03:44:45.678Z,11.50
2022-11-28T03:47:12.259Z,11.20
2022-11-28T03:49:41.239Z,9.98
2022-11-28T03:52:12.516Z,10.55
2022-11-28T03:54:59.798Z,10.70
2022-11-28T03:57:34.684Z,10.15
2022-11-28T04:00:06.111Z,11.20
2022-11-28T04:02:50.699Z,10.45
2022-11-28T04:05:38.454Z,10.82
2022-11-28T04:08:14.772Z,10.75
2022-11-28T04:10:46.817Z,10.15
2022-11-28T04:13:15.959Z,10.10
2022-11-28T04:16:31.964Z,10.40
2022-11-28T04:19:13.415Z,8.70
2022-11-28T04:22:10.741Z,8.27
2022-11-28T04:24:40.993Z,7.25
2022-11-28T04:27:10.491Z,7.95
2022-11-28T04:29:41.389Z,6.97
2022-11-28T04:32:08.166Z,7.13
2022-11-28T04:34:35.577Z,7.55
2022-11-28T04:37:08.327Z,7.55
2022-11-28T04:39:36.841Z,7.80
2022-11-28T04:42:11.463Z,7.32
2022-11-28T04:44:43.130Z,6.07
2022-11-28T04:47:10.244Z,6.55
2022-11-28T04:49:37.014Z,5.82
2022-11-28T04:52:37.199Z,6.55
2022-11-28T04:55:19.947Z,6.38
2022-11-28T04:57:55.718Z,6.38
2022-11-28T05:00:23.711Z,6.30
2022-11-28T05:02:51.899Z,6.85
2022-11-28T05:05:21.736Z,6.82
2022-11-28T05:07:48.442Z,6.82
2022-11-28T05:10:16.035Z,7.45
2022-11-28T05:12:42.834Z,7.22
2022-11-28T05:15:10.033Z,8.20
2022-11-28T05:17:41.689Z,8.27
2022-11-28T05:20:09.236Z,8.93
2022-11-28T05:22:35.716Z,8.07
2022-11-28T05:25:02.186Z,8.15
2022-11-28T05:27:29.270Z,7.53
2022-11-28T05:29:55.763Z,8.32
2022-11-28T05:32:22.261Z,7.50
2022-11-28T05:34:48.706Z,7.32
2022-11-28T05:37:15.886Z,7.47
2022-11-28T05:39:42.539Z,7.30
2022-11-28T05:42:09.248Z,6.13
2022-11-28T05:44:36.936Z,5.72
2022-11-28T05:47:03.392Z,6.13
2022-11-28T05:49:29.854Z,6.53
2022-11-28T05:51:56.245Z,6.78
2022-11-28T05:54:22.661Z,5.90
2022-11-28T05:56:49.135Z,6.78
2022-11-28T05:59:15.579Z,6.65
2022-11-28T06:01:42.140Z,6.15
2022-11-28T06:04:08.734Z,6.20
2022-11-28T06:06:36.108Z,6.47
2022-11-28T06:09:03.675Z,6.63
2022-11-28T06:11:31.842Z,5.90
2022-11-28T06:13:58.466Z,5.97
2022-11-28T06:16:26.727Z,5.97
2022-11-28T06:18:55.322Z,6.45
2022-11-28T06:21:22.280Z,6.80
2022-11-28T06:23:48.718Z,6.40
2022-11-28T06:26:17.669Z,7.00
2022-11-28T06:28:44.391Z,6.45
2022-11-28T06:31:18.760Z,6.75
2022-11-28T06:33:45.779Z,6.30
2022-11-28T06:36:13.924Z,5.93
2022-11-28T06:38:40.901Z,6.05
2022-11-28T06:41:09.521Z,6.85
2022-11-28T06:43:36.332Z,6.53
2022-11-28T06:46:03.874Z,6.38
2022-11-28T06:48:30.363Z,6.30
2022-11-28T06:51:04.970Z,7.15
2022-11-28T06:53:31.846Z,6.55
2022-11-28T06:55:58.463Z,7.28
2022-11-28T06:58:24.973Z,7.45
2022-11-28T07:00:51.534Z,7.65
2022-11-28T07:03:18.104Z,7.32
2022-11-28T07:05:44.546Z,7.60
2022-11-28T07:08:11.096Z,7.20
2022-11-28T07:10:37.588Z,7.50
2022-11-28T07:13:05.697Z,7.22
2022-11-28T07:15:32.565Z,7.82
2022-11-28T07:17:59.039Z,7.53
2022-11-28T07:20:25.487Z,8.10
2022-11-28T07:22:51.952Z,7.88
2022-11-28T07:25:18.443Z,7.45
2022-11-28T07:27:44.879Z,7.80
2022-11-28T07:30:11.649Z,7.53
2022-11-28T07:32:41.443Z,8.32
2022-11-28T07:35:08.809Z,7.78
2022-11-28T07:37:35.872Z,7.65
2022-11-28T07:40:02.357Z,7.38
2022-11-28T07:42:28.794Z,7.60
2022-11-28T07:45:03.763Z,9.52
2022-11-28T07:47:30.279Z,7.68
2022-11-28T07:49:56.831Z,7.15
2022-11-28T07:52:23.283Z,7.53
2022-11-28T07:54:50.248Z,7.47
2022-11-28T07:57:16.762Z,7.53
2022-11-28T07:59:43.743Z,7.82
2022-11-28T08:02:11.600Z,8.75
2022-11-28T08:04:40.462Z,9.30
2022-11-28T08:07:13.001Z,8.38
2022-11-28T08:09:39.512Z,8.07
2022-11-28T08:14:37.549Z,11.77
2022-11-28T08:17:04.141Z,9.38
2022-11-28T08:19:33.743Z,9.15
2022-11-28T08:22:01.924Z,8.80
2022-11-28T08:24:28.343Z,9.73
2022-11-28T08:26:54.810Z,9.07
2022-11-28T08:29:21.242Z,9.77
2022-11-28T08:31:47.830Z,11.07
2022-11-28T08:34:14.260Z,10.68
2022-11-28T08:36:40.793Z,10.77
2022-11-28T08:39:23.312Z,13.25
2022-11-28T08:41:50.764Z,15.90
2022-11-28T08:44:17.193Z,15.98
2022-11-28T08:46:44.025Z,17.63
2022-11-28T08:49:10.513Z,16.83
2022-11-28T08:51:37.069Z,16.63
2022-11-28T08:54:03.570Z,15.90
2022-11-28T08:56:29.987Z,15.40
2022-11-28T08:58:56.486Z,14.00
2022-11-28T09:01:24.576Z,12.80
2022-11-28T09:03:52.053Z,13.30
2022-11-28T09:06:18.905Z,12.00
2022-11-28T09:08:45.481Z,12.23
2022-11-28T09:11:14.559Z,12.90
2022-11-28T09:13:41.745Z,18.52
2022-11-28T09:16:08.696Z,16.75
2022-11-28T09:18:35.513Z,13.75
2022-11-28T09:21:07.375Z,15.63
2022-11-28T09:23:33.828Z,15.27
2022-11-28T09:26:00.297Z,13.95
2022-11-28T09:28:28.724Z,12.80
2022-11-28T09:31:02.695Z,13.47
2022-11-28T09:33:29.556Z,12.07
2022-11-28T09:35:56.186Z,11.98
2022-11-28T09:38:22.870Z,12.13
2022-11-28T09:40:49.727Z,11.93
2022-11-28T09:43:31.859Z,12.10
2022-11-28T09:46:00.940Z,11.80
2022-11-28T09:48:35.710Z,11.80
2022-11-28T09:51:25.794Z,12.02
2022-11-28T09:54:03.714Z,11.32
2022-11-28T09:56:30.281Z,12.40
2022-11-28T09:59:00.605Z,11.93
2022-11-28T10:01:38.308Z,11.57
2022-11-28T10:04:19.270Z,10.85
2022-11-28T10:06:55.122Z,11.77
2022-11-28T10:09:30.613Z,11.95
2022-11-28T10:12:06.234Z,9.85
2022-11-28T10:14:54.282Z,10.18
2022-11-28T10:17:51.221Z,9.90
2022-11-28T10:20:22.349Z,8.63
2022-11-28T10:22:53.390Z,10.10
2022-11-28T10:25:32.035Z,9.48
2022-11-28T10:27:58.522Z,11.65
2022-11-28T10:30:26.873Z,9.25
2022-11-28T10:33:24.782Z,8.67
2022-11-28T10:35:55.404Z,9.82
2022-11-28T10:38:25.887Z,8.63
2022-11-28T10:40:59.698Z,9.82
2022-11-28T10:43:31.188Z,8.48
2022-11-28T10:46:08.049Z,8.90
2022-11-28T10:48:51.968Z,8.40
2022-11-28T10:52:09.706Z,7.40
2022-11-28T10:54:54.510Z,6.53
2022-11-28T10:57:24.533Z,7.35
2022-11-28T11:00:10.297Z,7.20
2022-11-28T11:02:41.297Z,6.55
2022-11-28T11:05:13.103Z,6.38
2022-11-28T11:07:44.181Z,7.05
2022-11-28T11:10:25.931Z,6.32
2022-11-28T11:12:53.297Z,6.97
2022-11-28T11:15:23.555Z,6.65
2022-11-28T11:17:50.761Z,6.70
2022-11-28T11:20:22.865Z,7.05
2022-11-28T11:23:01.180Z,6.95
2022-11-28T11:25:29.622Z,7.78
2022-11-28T11:28:00.747Z,6.90
2022-11-28T11:30:32.486Z,6.75
2022-11-28T11:33:00.741Z,6.78
2022-11-28T11:35:42.661Z,7.03
2022-11-28T11:38:29.506Z,6.75
2022-11-28T11:40:57.627Z,6.75
2022-11-28T11:43:36.065Z,7.43
2022-11-28T11:46:12.570Z,7.20
2022-11-28T11:48:47.189Z,6.60
2022-11-28T11:51:24.128Z,6.65
2022-11-28T11:54:16.055Z,7.15
2022-11-28T11:56:45.517Z,6.88
2022-11-28T11:59:30.739Z,6.00
2022-11-28T12:02:03.358Z,6.35
2022-11-28T12:05:02.565Z,6.03
2022-11-28T12:10:04.328Z,6.18
2022-11-28T12:12:35.310Z,7.00
2022-11-28T12:15:01.768Z,5.60
2022-11-28T12:18:05.999Z,5.93
2022-11-28T12:20:53.143Z,6.22
2022-11-28T12:23:55.020Z,5.13
2022-11-28T12:26:58.975Z,6.45
2022-11-28T12:29:38.433Z,6.43
2022-11-28T12:35:25.715Z,6.20
2022-11-28T12:38:10.829Z,6.22
2022-11-28T12:40:48.088Z,6.68
2022-11-28T12:43:28.005Z,7.45
2022-11-28T12:46:16.284Z,7.78
2022-11-28T12:49:17.555Z,6.47
2022-11-28T12:51:59.600Z,5.65
2022-11-28T12:54:55.487Z,6.45
2022-11-28T12:57:28.478Z,7.25
2022-11-28T13:00:14.765Z,6.60
2022-11-28T13:02:56.565Z,6.90
2022-11-28T13:05:30.591Z,6.80
2022-11-28T13:08:28.509Z,6.63
2022-11-28T13:11:23.526Z,7.32
2022-11-28T13:14:09.634Z,6.43
2022-11-28T13:16:43.171Z,8.20
2022-11-28T13:19:38.050Z,6.22
2022-11-28T13:22:13.003Z,6.10
2022-11-28T13:24:45.165Z,6.40
2022-11-28T13:27:33.144Z,6.22
2022-11-28T13:30:20.219Z,5.70
2022-11-28T13:33:03.700Z,5.53
2022-11-28T13:35:30.518Z,5.07
2022-11-28T13:41:02.774Z,7.15
2022-11-28T13:43:29.135Z,4.65
2022-11-28T13:45:55.760Z,7.15
2022-11-28T13:48:50.240Z,5.07
2022-11-28T13:51:30.527Z,6.07
2022-11-28T13:54:16.918Z,6.30
2022-11-28T13:56:47.737Z,4.93
2022-11-28T13:59:21.777Z,4.57
2022-11-28T14:01:57.473Z,4.28
2022-11-28T14:04:24.835Z,4.70
2022-11-28T14:07:04.206Z,4.70
2022-11-28T14:09:49.356Z,4.57
2022-11-28T14:12:27.695Z,4.60
2022-11-28T14:15:12.565Z,4.20
2022-11-28T14:18:14.127Z,4.70
2022-11-28T14:21:08.548Z,6.90
2022-11-28T14:23:37.919Z,6.97
2022-11-28T14:28:43.611Z,5.35
2022-11-28T14:31:10.907Z,5.68
2022-11-28T14:33:40.696Z,5.03
2022-11-28T14:36:29.663Z,6.18
2022-11-28T14:39:23.383Z,5.68
2022-11-28T14:42:05.415Z,6.07
2022-11-28T14:44:57.086Z,4.97
2022-11-28T14:47:37.250Z,4.93
2022-11-28T14:50:06.710Z,4.57
2022-11-28T14:52:40.449Z,4.50
2022-11-28T14:55:11.684Z,3.90
2022-11-28T15:00:16.161Z,3.55
2022-11-28T15:03:20.721Z,4.00
2022-11-28T15:06:01.601Z,5.57
2022-11-28T15:08:40.193Z,7.85
2022-11-28T15:11:24.881Z,6.00
2022-11-28T15:14:02.021Z,4.50
2022-11-28T15:16:30.861Z,6.85
2022-11-28T15:19:20.221Z,7.35
2022-11-28T15:21:49.888Z,8.45
2022-11-28T15:24:25.090Z,8.52
2022-11-28T15:26:57.612Z,9.00
2022-11-28T15:29:27.337Z,10.00
2022-11-28T15:34:30.128Z,8.30
2022-11-28T15:36:59.388Z,9.30
2022-11-28T15:39:29.396Z,8.93
2022-11-28T15:41:57.362Z,7.85
2022-11-28T15:44:24.151Z,8.25
2022-11-28T15:46:50.768Z,9.77
2022-11-28T15:49:38.619Z,8.57
2022-11-28T15:52:05.479Z,9.77
2022-11-28T15:54:40.790Z,10.73
2022-11-28T15:57:18.045Z,9.75
2022-11-28T15:59:45.344Z,9.02
2022-11-28T16:02:23.346Z,10.10
2022-11-28T16:04:55.036Z,10.70
2022-11-28T16:07:21.795Z,9.57
2022-11-28T16:09:58.857Z,11.70
2022-11-28T16:12:26.293Z,11.52
2022-11-28T16:14:56.121Z,12.25
2022-11-28T16:17:28.893Z,11.18
2022-11-28T16:19:55.840Z,10.70
2022-11-28T16:22:28.786Z,10.25
2022-11-28T16:24:55.942Z,9.60
2022-11-28T16:27:32.646Z,9.35
2022-11-28T16:30:00.649Z,10.05
2022-11-28T16:32:37.880Z,19.30
2022-11-28T16:35:05.586Z,15.45
2022-11-28T16:37:32.808Z,12.15
2022-11-28T16:40:15.477Z,13.45
2022-11-28T16:42:42.316Z,12.15
2022-11-28T16:45:21.953Z,12.60
2022-11-28T16:48:00.680Z,16.75
2022-11-28T16:50:29.507Z,16.02
2022-11-28T16:52:57.719Z,15.25
2022-11-28T16:55:27.101Z,15.65
2022-11-28T17:00:21.340Z,16.00
2022-11-28T17:02:52.539Z,16.60
2022-11-28T17:05:19.178Z,16.52
2022-11-28T17:07:45.652Z,18.63
2022-11-28T17:10:12.678Z,14.30
2022-11-28T17:12:40.296Z,17.13
2022-11-28T17:15:08.703Z,13.80
2022-11-28T17:17:36.387Z,16.17
2022-11-28T17:20:03.566Z,14.95
2022-11-28T17:22:40.397Z,14.80
2022-11-28T17:25:07.952Z,13.35
2022-11-28T17:27:34.389Z,14.00
2022-11-28T17:30:00.804Z,12.40
2022-11-28T17:32:27.214Z,11.70
2022-11-28T17:34:53.694Z,10.88
2022-11-28T17:37:20.091Z,10.95
2022-11-28T17:40:05.374Z,8.68
2022-11-28T17:42:31.875Z,7.50
2022-11-28T17:44:58.339Z,7.40
2022-11-28T17:47:25.847Z,7.30
2022-11-28T17:49:52.536Z,6.63
2022-11-28T17:52:21.018Z,6.53
2022-11-28T17:54:47.561Z,6.85
2022-11-28T17:57:14.126Z,6.43
2022-11-28T17:59:40.624Z,7.00
2022-11-28T18:02:07.111Z,6.65
2022-11-28T18:04:34.787Z,5.75
2022-11-28T18:07:01.587Z,6.57
2022-11-28T18:09:29.121Z,7.88
2022-11-28T18:11:55.599Z,8.05
2022-11-28T18:14:22.064Z,8.02
2022-11-28T18:16:48.637Z,9.13
2022-11-28T18:19:15.201Z,8.80
2022-11-28T18:21:41.865Z,9.05
2022-11-28T18:24:08.974Z,7.72
2022-11-28T18:26:36.455Z,9.75
2022-11-28T18:29:03.673Z,7.22
2022-11-28T18:31:31.595Z,6.57
2022-11-28T18:34:02.361Z,6.72
2022-11-28T18:36:34.416Z,8.38
2022-11-28T18:39:04.344Z,7.63
2022-11-28T18:41:30.969Z,7.30
2022-11-28T18:44:01.926Z,6.82
2022-11-28T18:46:29.389Z,6.50
2022-11-28T18:48:56.720Z,5.45
2022-11-28T18:51:28.675Z,8.70
2022-11-28T18:53:56.219Z,8.27
2022-11-28T18:56:23.474Z,10.85
2022-11-28T18:58:53.474Z,10.70
2022-11-28T19:01:28.558Z,10.05
2022-11-28T19:04:01.338Z,9.65
2022-11-28T19:06:29.262Z,9.35
2022-11-28T19:08:58.936Z,9.02
2022-11-28T19:11:28.578Z,7.57
2022-11-28T19:13:56.213Z,9.85
2022-11-28T19:16:27.556Z,8.52
2022-11-28T19:18:55.370Z,9.70
2022-11-28T19:21:24.697Z,10.25
2022-11-28T19:23:51.564Z,9.63
2022-11-28T19:26:23.144Z,10.30
2022-11-28T19:28:50.440Z,12.07
2022-11-28T19:31:20.443Z,15.95
2022-11-28T19:34:00.269Z,20.90
2022-11-28T19:36:40.473Z,29.70
2022-11-28T19:39:09.528Z,33.72
2022-11-28T19:41:36.420Z,26.77
2022-11-28T19:44:03.938Z,48.20
2022-11-28T19:46:33.813Z,31.83
2022-11-28T19:49:04.291Z,57.30
2022-11-28T19:51:31.136Z,33.70
2022-11-28T19:54:02.904Z,25.92
2022-11-28T19:56:31.422Z,25.83
2022-11-28T19:58:58.753Z,21.13
2022-11-28T20:01:25.629Z,20.13
2022-11-28T20:03:53.398Z,17.65
2022-11-28T20:06:23.516Z,16.20
2022-11-28T20:08:51.695Z,14.90
2022-11-28T20:11:20.695Z,14.32
2022-11-28T20:13:48.184Z,14.15
2022-11-28T20:16:16.521Z,14.77
2022-11-28T20:18:44.334Z,13.43
2022-11-28T20:21:18.729Z,14.32
2022-11-28T20:23:53.730Z,13.63
2022-11-28T20:26:22.970Z,12.55
2022-11-28T20:28:49.560Z,13.77
2022-11-28T20:31:33.673Z,12.50
2022-11-28T20:34:00.869Z,11.88
2022-11-28T20:36:29.330Z,11.38
2022-11-28T20:38:56.918Z,12.90
2022-11-28T20:41:24.641Z,11.88
2022-11-28T20:43:51.180Z,13.57
2022-11-28T20:46:19.885Z,14.32
2022-11-28T20:48:46.657Z,13.88
2022-11-28T20:51:15.829Z,11.77
2022-11-28T20:53:42.485Z,14.70
2022-11-28T20:56:14.579Z,12.20
2022-11-28T20:58:41.522Z,15.57
2022-11-28T21:01:08.015Z,15.75
2022-11-28T21:03:34.555Z,17.90
2022-11-28T21:06:01.611Z,15.02
2022-11-28T21:08:31.178Z,12.98
2022-11-28T21:10:57.666Z,11.90
2022-11-28T21:13:24.150Z,14.63
2022-11-28T21:15:51.945Z,12.52
2022-11-28T21:18:18.357Z,11.85
2022-11-28T21:20:46.490Z,13.05
2022-11-28T21:23:13.974Z,12.40
2022-11-28T21:25:42.195Z,10.77
2022-11-28T21:28:09.863Z,13.03
2022-11-28T21:30:44.670Z,11.50
2022-11-28T21:33:12.471Z,11.93
2022-11-28T21:35:39.611Z,12.38
2022-11-28T21:38:06.881Z,12.70
2022-11-28T21:40:33.558Z,10.85
2022-11-28T21:43:00.100Z,12.65
2022-11-28T21:45:28.491Z,12.70
2022-11-28T21:47:55.068Z,11.82
2022-11-28T21:50:22.106Z,11.75
2022-11-28T21:52:48.636Z,11.45
2022-11-28T21:55:15.257Z,12.32
2022-11-28T21:57:42.201Z,11.93
2022-11-28T22:00:25.657Z,12.65
2022-11-28T22:03:02.570Z,12.73
2022-11-28T22:05:31.734Z,13.95
2022-11-28T22:07:58.878Z,12.13
2022-11-28T22:10:26.209Z,13.48
2022-11-28T22:12:53.519Z,14.63
2022-11-28T22:15:20.571Z,11.25
2022-11-28T22:17:47.330Z,13.40
2022-11-28T22:20:14.008Z,12.55
2022-11-28T22:22:40.549Z,14.40
2022-11-28T22:25:07.705Z,11.38
2022-11-28T22:27:35.394Z,13.35
2022-11-28T22:30:02.820Z,13.30
2022-11-28T22:32:29.678Z,26.25
2022-11-28T22:34:56.172Z,12.57
2022-11-28T22:37:22.662Z,16.75
2022-11-28T22:39:49.320Z,15.30
2022-11-28T22:42:15.799Z,14.75
2022-11-28T22:44:42.910Z,14.82
2022-11-28T22:47:09.650Z,12.43
2022-11-28T22:49:36.182Z,13.25
2022-11-28T22:52:02.711Z,14.30
2022-11-28T22:54:29.376Z,14.75
2022-11-28T22:56:55.991Z,14.70
2022-11-28T22:59:22.528Z,14.93
2022-11-28T23:01:50.347Z,16.52
2022-11-28T23:04:17.045Z,16.55
2022-11-28T23:06:43.730Z,15.40
2022-11-28T23:09:12.026Z,16.45
2022-11-28T23:11:39.740Z,12.95
2022-11-28T23:14:07.811Z,15.40
2022-11-28T23:16:37.000Z,14.00
2022-11-28T23:19:08.369Z,13.95
2022-11-28T23:21:37.341Z,14.00
2022-11-28T23:24:05.202Z,12.65
2022-11-28T23:26:33.240Z,14.35
2022-11-28T23:29:01.919Z,15.57
2022-11-28T23:31:30.589Z,12.98
2022-11-28T23:33:57.709Z,14.20
2022-11-28T23:36:42.043Z,12.23
2022-11-28T23:39:27.676Z,12.85
2022-11-28T23:42:03.153Z,13.20
2022-11-28T23:44:29.601Z,13.23
2022-11-28T23:46:56.100Z,11.48
2022-11-28T23:49:22.563Z,10.30
2022-11-28T23:51:49.015Z,11.05
2022-11-28T23:54:15.556Z,11.13
2022-11-28T23:56:42.823Z,11.40
2022-11-28T23:59:11.435Z,10.65
